sensor_id;sensor_type;location;lat;lon;timestamp;pressure;altitude;pressure_sealevel;temperature;humidity
74429;BME280;62860;52.134;23.714;2022-08-19T00:03:11;1022.7;;;21.4;77
74429;BME280;62860;52.134;23.714;2022-08-19T00:08:29;1022.7;;;21.3;77.1
74429;BME280;62860;52.134;23.714;2022-08-19T00:13:31;1022.7;;;21.3;77.1
74429;BME280;62860;52.134;23.714;2022-08-19T00:18:23;1022.8;;;21.2;77
74429;BME280;62860;52.134;23.714;2022-08-19T00:23:15;1022.8;;;21.2;77
74429;BME280;62860;52.134;23.714;2022-08-19T00:28:31;1022.7;;;21.1;77
74429;BME280;62860;52.134;23.714;2022-08-19T00:33:29;1022.8;;;21.1;77.1
74429;BME280;62860;52.134;23.714;2022-08-19T00:38:31;1022.8;;;21;77.3
74429;BME280;62860;52.134;23.714;2022-08-19T00:43:07;1022.7;;;21;77.3
74429;BME280;62860;52.134;23.714;2022-08-19T00:48:09;1022.7;;;21;77.3
74429;BME280;62860;52.134;23.714;2022-08-19T00:53:01;1022.8;;;20.9;77.3
74429;BME280;62860;52.134;23.714;2022-08-19T00:58:17;1022.8;;;20.9;77.4
74429;BME280;62860;52.134;23.714;2022-08-19T01:03:12;1022.8;;;20.9;77.3
74429;BME280;62860;52.134;23.714;2022-08-19T01:08:03;1022.9;;;20.9;77
74429;BME280;62860;52.134;23.714;2022-08-19T01:13:14;1022.9;;;20.9;77
74429;BME280;62860;52.134;23.714;2022-08-19T01:18:29;1023;;;20.9;76.9
74429;BME280;62860;52.134;23.714;2022-08-19T01:23:17;1023;;;20.9;77
74429;BME280;62860;52.134;23.714;2022-08-19T01:28:29;1023.1;;;20.8;76.9
74429;BME280;62860;52.134;23.714;2022-08-19T01:33:23;1023.1;;;20.8;77
74429;BME280;62860;52.134;23.714;2022-08-19T01:38:04;1023.1;;;20.7;77.2
74429;BME280;62860;52.134;23.714;2022-08-19T01:43:09;1023.2;;;20.6;77.4
74429;BME280;62860;52.134;23.714;2022-08-19T01:48:23;1023.2;;;20.6;77.6
74429;BME280;62860;52.134;23.714;2022-08-19T01:53:33;1023.2;;;20.6;77.6
74429;BME280;62860;52.134;23.714;2022-08-19T01:58:19;1023.2;;;20.6;77.5
74429;BME280;62860;52.134;23.714;2022-08-19T02:03:19;1023.2;;;20.6;77.3
74429;BME280;62860;52.134;23.714;2022-08-19T02:08:19;1023.2;;;20.5;77.4
74429;BME280;62860;52.134;23.714;2022-08-19T02:13:12;1023.3;;;20.5;77.6
74429;BME280;62860;52.134;23.714;2022-08-19T02:18:13;1023.4;;;20.5;77.5
74429;BME280;62860;52.134;23.714;2022-08-19T02:23:33;1023.4;;;20.4;77.7
74429;BME280;62860;52.134;23.714;2022-08-19T02:27:51;1023.4;;;20.4;77.7
74429;BME280;62860;52.134;23.714;2022-08-19T02:32:51;1023.4;;;20.4;77.7
74429;BME280;62860;52.134;23.714;2022-08-19T02:37:51;1023.5;;;20.3;77.7
74429;BME280;62860;52.134;23.714;2022-08-19T02:43:31;1023.5;;;20.2;77.9
74429;BME280;62860;52.134;23.714;2022-08-19T02:48:22;1023.6;;;20.2;77.9
74429;BME280;62860;52.134;23.714;2022-08-19T02:53:13;1023.6;;;20.2;77.9
74429;BME280;62860;52.134;23.714;2022-08-19T02:58:15;1023.6;;;20.1;78
74429;BME280;62860;52.134;23.714;2022-08-19T03:03:31;1023.7;;;20;78
74429;BME280;62860;52.134;23.714;2022-08-19T03:08:31;1023.7;;;20;77.8
74429;BME280;62860;52.134;23.714;2022-08-19T03:13:03;1023.6;;;20.1;77.6
74429;BME280;62860;52.134;23.714;2022-08-19T03:18:03;1023.6;;;20.1;77.6
74429;BME280;62860;52.134;23.714;2022-08-19T03:22:51;1023.6;;;20.1;77.6
74429;BME280;62860;52.134;23.714;2022-08-19T03:28:17;1023.7;;;20.1;77.5
74429;BME280;62860;52.134;23.714;2022-08-19T03:33:09;1023.7;;;20.1;77.5
74429;BME280;62860;52.134;23.714;2022-08-19T03:38:09;1023.7;;;20.1;77.3
74429;BME280;62860;52.134;23.714;2022-08-19T03:43:23;1023.8;;;20.2;77
74429;BME280;62860;52.134;23.714;2022-08-19T03:48:31;1023.8;;;20.3;76.6
74429;BME280;62860;52.134;23.714;2022-08-19T03:53:19;1023.8;;;20.4;75.9
74429;BME280;62860;52.134;23.714;2022-08-19T03:58:33;1023.8;;;20.5;75.3
74429;BME280;62860;52.134;23.714;2022-08-19T04:03:31;1023.8;;;20.6;74.8
74429;BME280;62860;52.134;23.714;2022-08-19T04:08:31;1023.8;;;20.7;74.3
74429;BME280;62860;52.134;23.714;2022-08-19T04:12:51;1023.8;;;20.8;73.4
74429;BME280;62860;52.134;23.714;2022-08-19T04:18:21;1023.7;;;21;72.7
74429;BME280;62860;52.134;23.714;2022-08-19T04:23:31;1023.7;;;21.2;72.1
74429;BME280;62860;52.134;23.714;2022-08-19T04:28:17;1023.7;;;21.4;71.6
74429;BME280;62860;52.134;23.714;2022-08-19T04:33:27;1023.6;;;21.5;70.3
74429;BME280;62860;52.134;23.714;2022-08-19T04:38:21;1023.6;;;21.6;69.9
74429;BME280;62860;52.134;23.714;2022-08-19T04:43:21;1023.7;;;21.8;69.2
74429;BME280;62860;52.134;23.714;2022-08-19T04:47:54;1023.7;;;21.9;68.6
74429;BME280;62860;52.134;23.714;2022-08-19T04:53:17;1023.6;;;22;68.2
74429;BME280;62860;52.134;23.714;2022-08-19T04:57:51;1023.6;;;22.2;68.2
74429;BME280;62860;52.134;23.714;2022-08-19T05:02:51;1023.7;;;22.3;67.9
74429;BME280;62860;52.134;23.714;2022-08-19T05:08:03;1023.8;;;22.5;67.3
74429;BME280;62860;52.134;23.714;2022-08-19T05:13:33;1023.8;;;22.6;66.3
74429;BME280;62860;52.134;23.714;2022-08-19T05:18:33;1023.7;;;22.6;66.6
74429;BME280;62860;52.134;23.714;2022-08-19T05:23:15;1023.7;;;22.7;66.6
74429;BME280;62860;52.134;23.714;2022-08-19T05:27:51;1023.8;;;22.9;66
74429;BME280;62860;52.134;23.714;2022-08-19T05:33:31;1023.9;;;23.1;65.5
74429;BME280;62860;52.134;23.714;2022-08-19T05:38:33;1023.9;;;23.3;64.8
74429;BME280;62860;52.134;23.714;2022-08-19T05:42:51;1023.8;;;23.5;64.4
74429;BME280;62860;52.134;23.714;2022-08-19T05:48:03;1023.7;;;23.7;64.1
74429;BME280;62860;52.134;23.714;2022-08-19T05:53:05;1023.8;;;23.9;63.4
74429;BME280;62860;52.134;23.714;2022-08-19T05:57:51;1023.8;;;24;63
74429;BME280;62860;52.134;23.714;2022-08-19T06:03:07;1023.9;;;24.1;63
74429;BME280;62860;52.134;23.714;2022-08-19T06:08:03;1023.9;;;24.3;62.7
74429;BME280;62860;52.134;23.714;2022-08-19T06:13:23;1023.9;;;24.6;61.1
74429;BME280;62860;52.134;23.714;2022-08-19T06:18:01;1023.9;;;24.9;60.4
74429;BME280;62860;52.134;23.714;2022-08-19T06:23:15;1023.8;;;25.2;59.2
74429;BME280;62860;52.134;23.714;2022-08-19T06:28:29;1023.8;;;25.5;58.2
74429;BME280;62860;52.134;23.714;2022-08-19T06:33:19;1023.9;;;26;57.3
74429;BME280;62860;52.134;23.714;2022-08-19T06:38:03;1024;;;26.1;56.6
74429;BME280;62860;52.134;23.714;2022-08-19T06:43:03;1024;;;26;56.7
74429;BME280;62860;52.134;23.714;2022-08-19T06:48:15;1024;;;26;56.8
74429;BME280;62860;52.134;23.714;2022-08-19T06:53:29;1024;;;25.9;57.1
74429;BME280;62860;52.134;23.714;2022-08-19T06:58:17;1024;;;26;57.4
74429;BME280;62860;52.134;23.714;2022-08-19T07:03:29;1023.9;;;26.2;57.9
74429;BME280;62860;52.134;23.714;2022-08-19T07:08:21;1023.9;;;26.3;56.7
74429;BME280;62860;52.134;23.714;2022-08-19T07:13:21;1023.9;;;26.4;56.5
74429;BME280;62860;52.134;23.714;2022-08-19T07:18:09;1023.9;;;26.5;55.8
74429;BME280;62860;52.134;23.714;2022-08-19T07:23:17;1023.9;;;26.4;56
74429;BME280;62860;52.134;23.714;2022-08-19T07:27:51;1023.9;;;26.6;56.4
74429;BME280;62860;52.134;23.714;2022-08-19T07:33:02;1024;;;26.7;56.3
74429;BME280;62860;52.134;23.714;2022-08-19T07:38:03;1024.1;;;26.8;56.1
74429;BME280;62860;52.134;23.714;2022-08-19T07:43:29;1024.1;;;26.9;56.2
74429;BME280;62860;52.134;23.714;2022-08-19T07:48:27;1024.1;;;26.8;56.1
74429;BME280;62860;52.134;23.714;2022-08-19T07:52:51;1024.1;;;26.9;56.6
74429;BME280;62860;52.134;23.714;2022-08-19T07:58:01;1024.1;;;27;55.7
74429;BME280;62860;52.134;23.714;2022-08-19T08:03:29;1024;;;26.9;55.5
74429;BME280;62860;52.134;23.714;2022-08-19T08:08:31;1024;;;26.9;55.3
74429;BME280;62860;52.134;23.714;2022-08-19T08:13:11;1024;;;27.1;56.6
74429;BME280;62860;52.134;23.714;2022-08-19T08:18:03;1024;;;27.4;55.6
74429;BME280;62860;52.134;23.714;2022-08-19T08:23:21;1024.1;;;27.5;53.5
74429;BME280;62860;52.134;23.714;2022-08-19T08:27:51;1024.1;;;27.7;53.2
74429;BME280;62860;52.134;23.714;2022-08-19T08:33:19;1024.1;;;28;52.3
74429;BME280;62860;52.134;23.714;2022-08-19T08:38:11;1024;;;28.1;51.7
74429;BME280;62860;52.134;23.714;2022-08-19T08:43:27;1024;;;28.2;52
74429;BME280;62860;52.134;23.714;2022-08-19T08:48:31;1024;;;28.3;50.4
74429;BME280;62860;52.134;23.714;2022-08-19T08:53:17;1024;;;28.5;49.8
74429;BME280;62860;52.134;23.714;2022-08-19T08:58:31;1024;;;28.6;49.4
74429;BME280;62860;52.134;23.714;2022-08-19T09:03:20;1024.1;;;28.7;48.7
74429;BME280;62860;52.134;23.714;2022-08-19T09:08:13;1024.1;;;28.7;48.5
74429;BME280;62860;52.134;23.714;2022-08-19T09:13:02;1024.1;;;28.7;48.5
74429;BME280;62860;52.134;23.714;2022-08-19T09:17:51;1024.2;;;28.7;48.8
74429;BME280;62860;52.134;23.714;2022-08-19T09:23:17;1024.1;;;28.8;47.6
74429;BME280;62860;52.134;23.714;2022-08-19T09:28:15;1024.1;;;28.8;46.4
74429;BME280;62860;52.134;23.714;2022-08-19T09:33:27;1024.1;;;28.7;45.9
74429;BME280;62860;52.134;23.714;2022-08-19T09:38:21;1024.1;;;28.8;46
74429;BME280;62860;52.134;23.714;2022-08-19T09:43:22;1024.1;;;28.9;45.9
74429;BME280;62860;52.134;23.714;2022-08-19T09:48:03;1024.1;;;28.9;45.1
74429;BME280;62860;52.134;23.714;2022-08-19T09:53:17;1024.1;;;29;45.2
74429;BME280;62860;52.134;23.714;2022-08-19T09:57:53;1024;;;29.1;45.4
74429;BME280;62860;52.134;23.714;2022-08-19T10:03:03;1024.1;;;29.3;44.1
74429;BME280;62860;52.134;23.714;2022-08-19T10:07:51;1024;;;29.4;44
74429;BME280;62860;52.134;23.714;2022-08-19T10:13:24;1024;;;29.4;44.1
74429;BME280;62860;52.134;23.714;2022-08-19T10:18:29;1024;;;29.5;43.6
74429;BME280;62860;52.134;23.714;2022-08-19T10:23:03;1024;;;29.6;44.7
74429;BME280;62860;52.134;23.714;2022-08-19T10:28:15;1024.1;;;29.6;43.7
74429;BME280;62860;52.134;23.714;2022-08-19T10:33:27;1024.1;;;29.7;43.1
74429;BME280;62860;52.134;23.714;2022-08-19T10:38:31;1024;;;29.8;43.7
74429;BME280;62860;52.134;23.714;2022-08-19T10:42:57;1024.1;;;29.9;43.6
74429;BME280;62860;52.134;23.714;2022-08-19T10:47:52;1024.1;;;29.9;43.4
74429;BME280;62860;52.134;23.714;2022-08-19T10:53:06;1024.1;;;30.1;42.5
74429;BME280;62860;52.134;23.714;2022-08-19T10:57:51;1024;;;30.2;42
74429;BME280;62860;52.134;23.714;2022-08-19T11:02:51;1024;;;30.3;42.5
74429;BME280;62860;52.134;23.714;2022-08-19T11:07:57;1023.9;;;30.5;41
74429;BME280;62860;52.134;23.714;2022-08-19T11:13:21;1023.8;;;30.5;40.2
74429;BME280;62860;52.134;23.714;2022-08-19T11:18:23;1023.8;;;30.6;41.9
74429;BME280;62860;52.134;23.714;2022-08-19T11:23:15;1023.7;;;30.6;41.6
74429;BME280;62860;52.134;23.714;2022-08-19T11:28:31;1023.7;;;30.7;41.9
74429;BME280;62860;52.134;23.714;2022-08-19T11:33:21;1023.6;;;30.6;41.5
74429;BME280;62860;52.134;23.714;2022-08-19T11:38:07;1023.6;;;30.5;41.5
74429;BME280;62860;52.134;23.714;2022-08-19T11:43:03;1023.6;;;30.4;41.5
74429;BME280;62860;52.134;23.714;2022-08-19T11:47:51;1023.5;;;30.3;41.7
74429;BME280;62860;52.134;23.714;2022-08-19T11:53:27;1023.5;;;30.3;41.9
74429;BME280;62860;52.134;23.714;2022-08-19T11:58:13;1023.5;;;30.4;41.3
74429;BME280;62860;52.134;23.714;2022-08-19T12:03:31;1023.5;;;30.4;41.5
74429;BME280;62860;52.134;23.714;2022-08-19T12:08:21;1023.6;;;30.5;40.8
74429;BME280;62860;52.134;23.714;2022-08-19T12:13:21;1023.6;;;30.6;41.4
74429;BME280;62860;52.134;23.714;2022-08-19T12:17:51;1023.6;;;30.6;41.4
74429;BME280;62860;52.134;23.714;2022-08-19T12:23:17;1023.5;;;30.7;41
74429;BME280;62860;52.134;23.714;2022-08-19T12:28:01;1023.5;;;30.7;39.9
74429;BME280;62860;52.134;23.714;2022-08-19T12:32:51;1023.5;;;30.5;40.3
74429;BME280;62860;52.134;23.714;2022-08-19T12:37:57;1023.4;;;30.5;42
74429;BME280;62860;52.134;23.714;2022-08-19T12:43:31;1023.5;;;30.5;42.7
74429;BME280;62860;52.134;23.714;2022-08-19T12:48:29;1023.4;;;30.6;42.2
74429;BME280;62860;52.134;23.714;2022-08-19T12:53:21;1023.4;;;30.6;41.9
74429;BME280;62860;52.134;23.714;2022-08-19T12:57:51;1023.4;;;30.6;41.9
74429;BME280;62860;52.134;23.714;2022-08-19T13:03:15;1023.3;;;30.6;41.4
74429;BME280;62860;52.134;23.714;2022-08-19T13:08:29;1023.3;;;30.6;42.8
74429;BME280;62860;52.134;23.714;2022-08-19T13:13:29;1023.2;;;30.6;42.6
74429;BME280;62860;52.134;23.714;2022-08-19T13:18:12;1023.1;;;30.6;42.7
74429;BME280;62860;52.134;23.714;2022-08-19T13:22:51;1023.1;;;30.5;42
74429;BME280;62860;52.134;23.714;2022-08-19T13:27:51;1023.1;;;30.5;41.8
74429;BME280;62860;52.134;23.714;2022-08-19T13:33:15;1023;;;30.6;42.5
74429;BME280;62860;52.134;23.714;2022-08-19T13:37:57;1023;;;30.7;41.9
74429;BME280;62860;52.134;23.714;2022-08-19T13:42:52;1022.9;;;30.8;42.2
74429;BME280;62860;52.134;23.714;2022-08-19T13:48:21;1022.9;;;30.9;41.5
74429;BME280;62860;52.134;23.714;2022-08-19T13:53:29;1022.9;;;30.9;41.4
74429;BME280;62860;52.134;23.714;2022-08-19T13:58:17;1023;;;31;41.1
74429;BME280;62860;52.134;23.714;2022-08-19T14:03:30;1023;;;31.1;40.7
74429;BME280;62860;52.134;23.714;2022-08-19T14:08:29;1022.9;;;31.1;40.6
74429;BME280;62860;52.134;23.714;2022-08-19T14:12:58;1022.9;;;31;39.6
74429;BME280;62860;52.134;23.714;2022-08-19T14:18:05;1022.9;;;31.1;39
74429;BME280;62860;52.134;23.714;2022-08-19T14:23:11;1022.9;;;31.3;39
74429;BME280;62860;52.134;23.714;2022-08-19T14:28:29;1022.9;;;31.4;39.8
74429;BME280;62860;52.134;23.714;2022-08-19T14:33:13;1022.8;;;31.4;39.6
74429;BME280;62860;52.134;23.714;2022-08-19T14:38:21;1022.8;;;31.4;39.5
74429;BME280;62860;52.134;23.714;2022-08-19T14:43:21;1022.7;;;31.3;39.9
74429;BME280;62860;52.134;23.714;2022-08-19T14:48:11;1022.7;;;31.3;38.9
74429;BME280;62860;52.134;23.714;2022-08-19T14:53:11;1022.7;;;31.3;38.6
74429;BME280;62860;52.134;23.714;2022-08-19T14:58:17;1022.7;;;31.2;38.9
74429;BME280;62860;52.134;23.714;2022-08-19T15:03:15;1022.7;;;31.2;39.2
74429;BME280;62860;52.134;23.714;2022-08-19T15:08:03;1022.6;;;31;40
74429;BME280;62860;52.134;23.714;2022-08-19T15:13:09;1022.6;;;30.9;39.9
74429;BME280;62860;52.134;23.714;2022-08-19T15:18:31;1022.7;;;30.9;39.6
74429;BME280;62860;52.134;23.714;2022-08-19T15:23:23;1022.7;;;30.8;39.5
74429;BME280;62860;52.134;23.714;2022-08-19T15:28:15;1022.7;;;30.6;39.7
74429;BME280;62860;52.134;23.714;2022-08-19T15:33:19;1022.7;;;30.6;40.3
74429;BME280;62860;52.134;23.714;2022-08-19T15:38:32;1022.6;;;30.6;40
74429;BME280;62860;52.134;23.714;2022-08-19T15:43:29;1022.5;;;30.7;40.6
74429;BME280;62860;52.134;23.714;2022-08-19T15:48:09;1022.5;;;30.7;40.3
74429;BME280;62860;52.134;23.714;2022-08-19T15:53:07;1022.4;;;30.6;39.8
74429;BME280;62860;52.134;23.714;2022-08-19T15:58:15;1022.4;;;30.5;39.9
74429;BME280;62860;52.134;23.714;2022-08-19T16:03:13;1022.4;;;30.4;41
74429;BME280;62860;52.134;23.714;2022-08-19T16:08:15;1022.4;;;30.3;41.5
74429;BME280;62860;52.134;23.714;2022-08-19T16:12:51;1022.4;;;30.1;41.6
74429;BME280;62860;52.134;23.714;2022-08-19T16:18:23;1022.5;;;29.9;41.5
74429;BME280;62860;52.134;23.714;2022-08-19T16:23:29;1022.5;;;29.7;41.6
74429;BME280;62860;52.134;23.714;2022-08-19T16:28:17;1022.5;;;29.6;41.8
74429;BME280;62860;52.134;23.714;2022-08-19T16:33:29;1022.5;;;29.4;43
74429;BME280;62860;52.134;23.714;2022-08-19T16:38:31;1022.5;;;29.2;43.9
74429;BME280;62860;52.134;23.714;2022-08-19T16:42:51;1022.5;;;29;44
74429;BME280;62860;52.134;23.714;2022-08-19T16:48:03;1022.5;;;28.8;44.7
74429;BME280;62860;52.134;23.714;2022-08-19T16:53:24;1022.6;;;28.6;45.5
74429;BME280;62860;52.134;23.714;2022-08-19T16:58:31;1022.7;;;28.5;45.8
74429;BME280;62860;52.134;23.714;2022-08-19T17:03:15;1022.7;;;28.3;46.4
74429;BME280;62860;52.134;23.714;2022-08-19T17:08:30;1022.8;;;28.1;47
74429;BME280;62860;52.134;23.714;2022-08-19T17:13:25;1022.9;;;28;47.7
74429;BME280;62860;52.134;23.714;2022-08-19T17:18:21;1022.9;;;27.9;47.9
74429;BME280;62860;52.134;23.714;2022-08-19T17:23:09;1022.9;;;27.8;48.2
74429;BME280;62860;52.134;23.714;2022-08-19T17:28:20;1023;;;27.6;49.2
74429;BME280;62860;52.134;23.714;2022-08-19T17:33:02;1022.9;;;27.4;49.2
74429;BME280;62860;52.134;23.714;2022-08-19T17:38:05;1022.9;;;27.2;49.8
74429;BME280;62860;52.134;23.714;2022-08-19T17:42:57;1022.9;;;27.1;50.1
74429;BME280;62860;52.134;23.714;2022-08-19T17:48:30;1022.9;;;27;50.6
74429;BME280;62860;52.134;23.714;2022-08-19T17:53:29;1022.9;;;26.8;51.1
74429;BME280;62860;52.134;23.714;2022-08-19T17:58:15;1023;;;26.7;51.5
74429;BME280;62860;52.134;23.714;2022-08-19T18:02:54;1023;;;26.5;52.3
74429;BME280;62860;52.134;23.714;2022-08-19T18:08:31;1023;;;26.3;52.5
74429;BME280;62860;52.134;23.714;2022-08-19T18:13:29;1022.8;;;26.2;52.8
74429;BME280;62860;52.134;23.714;2022-08-19T18:18:11;1022.8;;;26;53.2
74429;BME280;62860;52.134;23.714;2022-08-19T18:23:03;1022.7;;;25.9;53.5
74429;BME280;62860;52.134;23.714;2022-08-19T18:28:17;1022.7;;;25.8;54.3
74429;BME280;62860;52.134;23.714;2022-08-19T18:32:52;1022.7;;;25.7;54.6
74429;BME280;62860;52.134;23.714;2022-08-19T18:38:12;1022.8;;;25.5;55.2
74429;BME280;62860;52.134;23.714;2022-08-19T18:43:11;1022.8;;;25.3;55.6
74429;BME280;62860;52.134;23.714;2022-08-19T18:48:23;1022.7;;;25.2;56.1
74429;BME280;62860;52.134;23.714;2022-08-19T18:53:21;1022.8;;;25.1;56.5
74429;BME280;62860;52.134;23.714;2022-08-19T18:58:24;1022.8;;;25;56.8
74429;BME280;62860;52.134;23.714;2022-08-19T19:03:29;1022.9;;;24.9;57
74429;BME280;62860;52.134;23.714;2022-08-19T19:08:21;1022.8;;;24.8;57.1
74429;BME280;62860;52.134;23.714;2022-08-19T19:13:03;1022.8;;;24.8;57.2
74429;BME280;62860;52.134;23.714;2022-08-19T19:17:51;1022.8;;;24.7;57
74429;BME280;62860;52.134;23.714;2022-08-19T19:23:05;1023;;;24.7;56.9
74429;BME280;62860;52.134;23.714;2022-08-19T19:28:29;1023;;;24.6;57.4
74429;BME280;62860;52.134;23.714;2022-08-19T19:33:13;1023;;;24.6;57.5
74429;BME280;62860;52.134;23.714;2022-08-19T19:38:27;1023;;;24.5;57.7
74429;BME280;62860;52.134;23.714;2022-08-19T19:43:21;1023.1;;;24.4;58.2
74429;BME280;62860;52.134;23.714;2022-08-19T19:48:23;1023.1;;;24.3;58.5
74429;BME280;62860;52.134;23.714;2022-08-19T19:53:03;1023.2;;;24.2;59
74429;BME280;62860;52.134;23.714;2022-08-19T19:58:17;1023.3;;;24.1;59
74429;BME280;62860;52.134;23.714;2022-08-19T20:03:01;1023.4;;;24;58.7
74429;BME280;62860;52.134;23.714;2022-08-19T20:07:52;1023.5;;;24;58.8
74429;BME280;62860;52.134;23.714;2022-08-19T20:13:03;1023.5;;;24;58.7
74429;BME280;62860;52.134;23.714;2022-08-19T20:18:29;1023.5;;;23.9;58.7
74429;BME280;62860;52.134;23.714;2022-08-19T20:23:29;1023.5;;;23.9;58.7
74429;BME280;62860;52.134;23.714;2022-08-19T20:28:16;1023.5;;;23.9;58.7
74429;BME280;62860;52.134;23.714;2022-08-19T20:33:13;1023.6;;;23.8;59
74429;BME280;62860;52.134;23.714;2022-08-19T20:38:29;1023.6;;;23.8;58.5
74429;BME280;62860;52.134;23.714;2022-08-19T20:43:29;1023.6;;;23.8;58.9
74429;BME280;62860;52.134;23.714;2022-08-19T20:48:17;1023.7;;;23.7;58.7
74429;BME280;62860;52.134;23.714;2022-08-19T20:53:11;1023.8;;;23.7;58.9
74429;BME280;62860;52.134;23.714;2022-08-19T20:58:03;1023.8;;;23.6;59
74429;BME280;62860;52.134;23.714;2022-08-19T21:02:51;1023.8;;;23.6;59.4
74429;BME280;62860;52.134;23.714;2022-08-19T21:08:12;1023.8;;;23.5;59.5
74429;BME280;62860;52.134;23.714;2022-08-19T21:13:09;1023.8;;;23.4;59.9
74429;BME280;62860;52.134;23.714;2022-08-19T21:18:21;1023.8;;;23.3;60.4
74429;BME280;62860;52.134;23.714;2022-08-19T21:23:22;1023.8;;;23.2;60.8
74429;BME280;62860;52.134;23.714;2022-08-19T21:28:29;1023.9;;;23.1;60.9
74429;BME280;62860;52.134;23.714;2022-08-19T21:33:27;1023.9;;;23;61.1
74429;BME280;62860;52.134;23.714;2022-08-19T21:38:27;1023.9;;;22.9;61.4
74429;BME280;62860;52.134;23.714;2022-08-19T21:43:29;1023.9;;;22.8;61.8
74429;BME280;62860;52.134;23.714;2022-08-19T21:48:03;1023.9;;;22.7;62.1
74429;BME280;62860;52.134;23.714;2022-08-19T21:52:51;1023.8;;;22.6;62.3
74429;BME280;62860;52.134;23.714;2022-08-19T21:58:21;1023.7;;;22.5;62.8
74429;BME280;62860;52.134;23.714;2022-08-19T22:03:27;1023.7;;;22.3;63.2
74429;BME280;62860;52.134;23.714;2022-08-19T22:08:09;1023.7;;;22.2;63.6
74429;BME280;62860;52.134;23.714;2022-08-19T22:13:19;1023.7;;;22.2;64
74429;BME280;62860;52.134;23.714;2022-08-19T22:18:29;1023.7;;;22.1;64.2
74429;BME280;62860;52.134;23.714;2022-08-19T22:23:11;1023.7;;;22;64.5
74429;BME280;62860;52.134;23.714;2022-08-19T22:28:12;1023.7;;;22;65.1
74429;BME280;62860;52.134;23.714;2022-08-19T22:33:05;1023.7;;;21.9;65.2
74429;BME280;62860;52.134;23.714;2022-08-19T22:37:52;1023.7;;;21.9;65.3
74429;BME280;62860;52.134;23.714;2022-08-19T22:43:06;1023.7;;;21.8;65.3
74429;BME280;62860;52.134;23.714;2022-08-19T22:48:08;1023.7;;;21.8;65.9
74429;BME280;62860;52.134;23.714;2022-08-19T22:53:25;1023.7;;;21.8;66.2
74429;BME280;62860;52.134;23.714;2022-08-19T22:58:15;1023.6;;;21.7;66.3
74429;BME280;62860;52.134;23.714;2022-08-19T23:03:13;1023.5;;;21.7;66.1
74429;BME280;62860;52.134;23.714;2022-08-19T23:08:01;1023.4;;;21.6;66.4
74429;BME280;62860;52.134;23.714;2022-08-19T23:13:25;1023.5;;;21.6;66.7
74429;BME280;62860;52.134;23.714;2022-08-19T23:18:25;1023.5;;;21.5;66.8
74429;BME280;62860;52.134;23.714;2022-08-19T23:23:12;1023.6;;;21.5;67.3
74429;BME280;62860;52.134;23.714;2022-08-19T23:27:51;1023.6;;;21.5;66.9
74429;BME280;62860;52.134;23.714;2022-08-19T23:33:16;1023.6;;;21.5;67.1
74429;BME280;62860;52.134;23.714;2022-08-19T23:38:13;1023.6;;;21.4;67.2
74429;BME280;62860;52.134;23.714;2022-08-19T23:43:07;1023.6;;;21.4;67.2
74429;BME280;62860;52.134;23.714;2022-08-19T23:48:09;1023.5;;;21.2;67.7
74429;BME280;62860;52.134;23.714;2022-08-19T23:53:21;1023.4;;;21.1;68.3
74429;BME280;62860;52.134;23.714;2022-08-19T23:58:25;1023.5;;;21;68.9
